Time;durP1;ratioP1;P1;durP2;ratioP2;P2;SDS_P1;SDS_P2;PMS_P1;PMS_P2;Temp;Humidity;BMP_temperature;BMP_pressure;BME280_temperature;BME280_humidity;BME280_pressure;Samples;Min_cycle;Max_cycle;Signal;HPM_P1;HPM_P2
2022/06/22 00:00:19;;;;;;;;;2.00;2.00;;;;;22.46;47.97;98103.53;4944370;28;102315;-57
2022/06/22 00:02:48;;;;;;;;;3.00;2.00;;;;;22.45;47.68;98102.69;4927593;28;103112;-57
2022/06/22 00:05:21;;;;;;;;;1.67;0.67;;;;;22.45;47.78;98102.69;4914912;28;104037;-57
2022/06/22 00:07:53;;;;;;;;;2.00;2.00;;;;;22.46;48.10;98100.75;4906260;28;102445;-58
2022/06/22 00:10:32;;;;;;;;;1.67;1.67;;;;;22.46;47.96;98104.34;4957820;28;102542;-57
2022/06/22 00:13:00;;;;;;;;;1.33;1.33;;;;;22.46;47.69;98103.53;4881405;28;103320;-57
2022/06/22 00:15:40;;;;;;;;;0.00;0.00;;;;;22.46;47.55;98104.34;4966332;28;108879;-57
2022/06/22 00:18:28;;;;;;;;;2.00;2.00;;;;;22.46;47.82;98098.00;4940388;28;102412;-57
2022/06/22 00:20:58;;;;;;;;;1.00;1.00;;;;;22.46;47.71;98095.25;4939135;28;111349;-57
2022/06/22 00:23:38;;;;;;;;;1.00;1.00;;;;;22.43;47.75;98093.06;4914553;28;102778;-57
2022/06/22 00:26:15;;;;;;;;;1.00;1.00;;;;;22.43;47.89;98106.84;4926316;28;109790;-57
2022/06/22 00:29:05;;;;;;;;;3.00;2.00;;;;;22.40;47.88;98113.75;4937524;28;102260;-57
2022/06/22 00:31:42;;;;;;;;;3.00;2.00;;;;;22.40;47.74;98115.69;4919400;28;102382;-57
2022/06/22 00:34:09;;;;;;;;;1.67;1.67;;;;;22.39;48.10;98114.84;4927240;28;102734;-57
2022/06/22 00:36:56;;;;;;;;;2.00;2.00;;;;;22.39;47.82;98130.56;4931584;28;104258;-57
2022/06/22 00:39:29;;;;;;;;;2.00;2.00;;;;;22.39;47.71;98131.38;4962083;28;102520;-57
2022/06/22 00:42:14;;;;;;;;;2.00;2.00;;;;;22.38;48.02;98135.25;4941396;28;102315;-57
2022/06/22 00:44:51;;;;;;;;;1.67;1.67;;;;;22.38;48.09;98135.25;4929475;28;103987;-57
2022/06/22 00:47:30;;;;;;;;;1.67;1.67;;;;;22.37;47.96;98141.91;4927881;28;104213;-57
2022/06/22 00:50:15;;;;;;;;;2.00;2.00;;;;;22.38;47.62;98149.03;4917484;28;102240;-58
2022/06/22 00:52:52;;;;;;;;;0.67;0.67;;;;;22.37;47.66;98144.66;4929281;28;102625;-57
2022/06/22 00:55:27;;;;;;;;;1.00;1.00;;;;;22.36;47.66;98154.00;4930403;28;102596;-57
2022/06/22 00:58:18;;;;;;;;;1.00;1.00;;;;;22.35;48.22;98155.13;4940761;28;104276;-57
2022/06/22 01:01:00;;;;;;;;;2.00;2.00;;;;;22.34;47.91;98155.41;4927575;28;102274;-57
2022/06/22 01:03:39;;;;;;;;;2.00;2.00;;;;;22.33;47.81;98159.28;4917346;28;104155;-57
2022/06/22 01:06:19;;;;;;;;;2.00;1.00;;;;;22.32;48.00;98163.97;4880638;28;102549;-57
2022/06/22 01:09:06;;;;;;;;;1.00;1.00;;;;;22.30;47.75;98166.19;4948920;28;104020;-57
2022/06/22 01:14:38;;;;;;;;;1.00;1.00;;;;;22.29;48.03;98170.03;4922703;28;102204;-57
2022/06/22 01:17:06;;;;;;;;;1.67;1.67;;;;;22.30;47.67;98165.34;4893000;28;102182;-57
2022/06/22 01:19:46;;;;;;;;;2.00;2.00;;;;;22.29;47.99;98153.50;4935141;28;108564;-57
2022/06/22 01:22:44;;;;;;;;;2.67;2.00;;;;;22.29;47.56;98156.25;4938103;28;102167;-57
2022/06/22 01:25:30;;;;;;;;;2.00;2.00;;;;;22.28;47.54;98162.91;4934565;28;102432;-57
2022/06/22 01:27:58;;;;;;;;;1.67;1.67;;;;;22.28;47.75;98162.91;4946259;28;104074;-57
2022/06/22 01:30:38;;;;;;;;;2.00;2.00;;;;;22.27;47.64;98168.69;4935778;28;104128;-57
2022/06/22 01:33:14;;;;;;;;;1.00;1.00;;;;;22.27;47.79;98174.19;4928011;28;102394;-57
2022/06/22 01:35:41;;;;;;;;;1.00;1.00;;;;;22.24;47.79;98162.63;4934322;28;102610;-58
2022/06/22 01:38:13;;;;;;;;;2.00;2.00;;;;;22.23;47.65;98161.00;4943010;28;102476;-57
2022/06/22 01:40:50;;;;;;;;;2.00;2.00;;;;;22.23;47.55;98163.75;4931191;28;104240;-58
2022/06/22 01:43:26;;;;;;;;;2.00;2.00;;;;;22.21;47.87;98163.22;4936906;28;103364;-57
2022/06/22 01:46:22;;;;;;;;;2.00;2.00;;;;;22.20;47.59;98156.06;4938206;28;103214;-57
2022/06/22 01:48:54;;;;;;;;;1.67;1.00;;;;;22.20;47.68;98150.53;4938251;28;102428;-57
2022/06/22 01:52:17;;;;;;;;;0.67;0.67;;;;;22.21;47.83;98143.94;4952728;28;104084;-57
2022/06/22 01:54:57;;;;;;;;;2.00;2.00;;;;;22.21;47.68;98154.13;4937492;28;103126;-58
2022/06/22 01:57:36;;;;;;;;;2.67;2.67;;;;;22.20;47.59;98158.81;4955644;28;102287;-57
2022/06/22 02:00:16;;;;;;;;;1.33;1.33;;;;;22.19;47.44;98159.94;4971082;28;102129;-57
2022/06/22 02:02:59;;;;;;;;;2.00;1.00;;;;;22.19;48.10;98161.88;4940583;28;109009;-57
2022/06/22 02:05:30;;;;;;;;;2.00;2.00;;;;;22.18;47.68;98155.53;4936274;28;102432;-57
2022/06/22 02:08:04;;;;;;;;;2.00;2.00;;;;;22.16;47.70;98157.75;4928341;28;103130;-57
2022/06/22 02:10:37;;;;;;;;;1.67;1.67;;;;;22.16;47.89;98146.72;4955672;28;102592;-57
2022/06/22 02:13:16;;;;;;;;;1.67;1.67;;;;;22.16;47.95;98145.91;4937234;28;108499;-57
2022/06/22 02:15:46;;;;;;;;;2.00;2.00;;;;;22.13;47.85;98158.31;4932925;28;102691;-57
2022/06/22 02:18:22;;;;;;;;;1.00;0.33;;;;;22.12;47.40;98158.59;4941483;28;102128;-57
2022/06/22 02:20:49;;;;;;;;;1.67;1.67;;;;;22.12;48.09;98162.19;4959115;28;102335;-57
2022/06/22 02:23:20;;;;;;;;;1.33;1.33;;;;;22.11;48.03;98157.78;4939481;28;103707;-57
2022/06/22 02:26:04;;;;;;;;;2.33;2.00;;;;;22.12;47.58;98167.69;4944011;28;102366;-57
2022/06/22 02:28:31;;;;;;;;;1.67;1.67;;;;;22.13;47.88;98166.59;4936342;28;102398;-58
2022/06/22 02:30:58;;;;;;;;;2.00;2.00;;;;;22.12;47.82;98181.44;4942533;28;104219;-57
2022/06/22 02:33:25;;;;;;;;;1.67;1.67;;;;;22.14;47.57;98194.94;4940692;28;104047;-57
2022/06/22 02:35:52;;;;;;;;;1.00;1.00;;;;;22.12;47.50;98186.97;4934408;28;102646;-57
2022/06/22 02:38:20;;;;;;;;;2.00;2.00;;;;;22.11;47.28;98196.31;4940242;28;102213;-57
2022/06/22 02:46:21;;;;;;;;;2.67;2.00;;;;;22.08;47.68;98202.41;4942180;28;103164;-57
2022/06/22 02:48:55;;;;;;;;;2.00;2.00;;;;;22.07;47.54;98200.75;4939097;28;102654;-57
2022/06/22 02:51:42;;;;;;;;;1.00;1.00;;;;;22.06;47.78;98198.31;4904603;28;102192;-57
2022/06/22 02:54:18;;;;;;;;;2.00;2.00;;;;;22.06;47.69;98195.56;4933052;28;109421;-57
2022/06/22 02:56:45;;;;;;;;;2.00;2.00;;;;;22.05;47.94;98197.50;4937959;28;102167;-57
2022/06/22 02:59:12;;;;;;;;;1.67;1.67;;;;;22.06;47.77;98198.31;4932978;28;102465;-57
2022/06/22 03:01:39;;;;;;;;;2.00;2.00;;;;;22.06;47.68;98209.31;4944736;28;102692;-57
2022/06/22 03:04:11;;;;;;;;;1.33;1.00;;;;;22.04;47.47;98206.84;4927029;28;104238;-57
2022/06/22 03:06:42;;;;;;;;;2.00;2.00;;;;;22.06;47.77;98210.16;4941832;28;105753;-58
2022/06/22 03:09:09;;;;;;;;;1.00;1.00;;;;;22.04;47.75;98204.09;4933714;28;102266;-59
2022/06/22 03:11:39;;;;;;;;;1.33;1.33;;;;;22.04;47.44;98203.28;4943699;28;103034;-57
2022/06/22 03:14:24;;;;;;;;;3.67;3.00;;;;;22.03;47.50;98201.63;4961951;28;108935;-57
2022/06/22 03:17:04;;;;;;;;;2.00;2.00;;;;;22.02;47.91;98197.25;4944149;28;102221;-57
2022/06/22 03:19:50;;;;;;;;;3.00;2.00;;;;;22.02;47.57;98200.78;4973301;28;102165;-57
2022/06/22 03:22:26;;;;;;;;;1.67;1.67;;;;;22.01;47.63;98188.16;4929342;28;102235;-57
2022/06/22 03:25:06;;;;;;;;;0.67;0.67;;;;;22.00;47.28;98175.50;4933547;28;104072;-57
2022/06/22 03:27:36;;;;;;;;;2.67;2.67;;;;;21.98;47.56;98174.94;4967328;28;102205;-57
2022/06/22 03:30:06;;;;;;;;;2.00;2.00;;;;;21.99;47.45;98168.31;4919499;28;102120;-57
2022/06/22 03:32:54;;;;;;;;;0.67;0.67;;;;;21.99;47.62;98176.59;4930833;28;102145;-57
2022/06/22 03:35:32;;;;;;;;;2.00;2.00;;;;;21.99;47.52;98170.25;4951139;28;109767;-57
2022/06/22 03:38:11;;;;;;;;;2.00;2.00;;;;;22.00;47.81;98178.25;4948637;28;105427;-57
2022/06/22 03:41:02;;;;;;;;;1.67;1.67;;;;;22.01;47.81;98173.56;4940487;28;102175;-57
2022/06/22 03:43:34;;;;;;;;;3.00;3.00;;;;;22.00;46.98;98160.91;4967730;28;102163;-57
2022/06/22 03:46:21;;;;;;;;;1.00;1.00;;;;;21.99;47.55;98171.09;4945476;28;104099;-57
2022/06/22 03:48:52;;;;;;;;;0.33;0.33;;;;;21.97;47.73;98162.31;4916311;28;102148;-57
2022/06/22 03:51:24;;;;;;;;;2.00;1.33;;;;;21.96;47.65;98160.66;4933538;28;103184;-57
2022/06/22 03:53:58;;;;;;;;;1.00;1.00;;;;;21.96;47.28;98168.91;4921878;28;102688;-57
2022/06/22 03:56:31;;;;;;;;;2.00;2.00;;;;;21.96;47.67;98174.41;4937275;28;108746;-57
2022/06/22 03:58:59;;;;;;;;;2.33;2.00;;;;;21.95;47.09;98169.19;4936798;28;102165;-57
2022/06/22 04:01:26;;;;;;;;;3.00;3.00;;;;;21.93;47.75;98177.72;4936437;28;102861;-57
2022/06/22 04:03:55;;;;;;;;;1.67;1.67;;;;;21.93;47.35;98185.97;4943760;28;102277;-57
2022/06/22 04:06:31;;;;;;;;;1.00;1.00;;;;;21.94;47.42;98197.81;4911831;28;104220;-57
2022/06/22 04:09:03;;;;;;;;;2.00;2.00;;;;;21.95;47.26;98207.72;4937334;28;102129;-57
2022/06/22 04:11:30;;;;;;;;;2.00;2.00;;;;;21.96;47.73;98204.69;4925010;28;103083;-57
2022/06/22 04:14:02;;;;;;;;;3.00;2.33;;;;;21.95;47.20;98208.56;4937781;28;102674;-57
2022/06/22 04:16:50;;;;;;;;;2.00;2.00;;;;;21.95;47.02;98203.03;4935881;28;105085;-57
2022/06/22 04:19:24;;;;;;;;;2.00;2.00;;;;;21.94;47.50;98193.13;4973809;28;102220;-57
2022/06/22 04:21:54;;;;;;;;;2.00;2.00;;;;;21.96;47.23;98210.22;4953619;28;102682;-57
2022/06/22 04:24:29;;;;;;;;;2.00;2.00;;;;;21.95;47.37;98214.06;4953063;28;102603;-57
2022/06/22 04:27:14;;;;;;;;;3.00;1.67;;;;;21.94;47.43;98208.81;4926500;28;104072;-57
2022/06/22 04:30:12;;;;;;;;;3.00;2.00;;;;;21.93;47.52;98221.75;4922149;28;102668;-58
2022/06/22 04:32:54;;;;;;;;;2.00;2.00;;;;;21.93;47.29;98223.72;4930308;28;102219;-57
2022/06/22 04:35:57;;;;;;;;;1.00;1.00;;;;;21.92;47.03;98224.78;4941584;28;110454;-57
2022/06/22 04:38:45;;;;;;;;;3.00;3.00;;;;;21.92;47.45;98216.53;4937205;28;108815;-57
2022/06/22 04:41:18;;;;;;;;;1.33;1.00;;;;;21.92;47.29;98225.63;4936333;28;102399;-57
2022/06/22 04:43:47;;;;;;;;;1.00;1.00;;;;;21.92;47.09;98214.59;4936050;28;102156;-58
2022/06/22 04:46:21;;;;;;;;;1.00;1.00;;;;;21.94;47.43;98217.91;4929845;28;102615;-58
2022/06/22 04:48:48;;;;;;;;;1.67;1.67;;;;;21.94;47.29;98217.91;4942717;28;104164;-57
2022/06/22 04:51:32;;;;;;;;;2.00;2.00;;;;;21.95;47.05;98221.50;4933635;28;103000;-57
2022/06/22 04:54:26;;;;;;;;;2.00;2.00;;;;;21.95;47.26;98218.75;4931994;28;102241;-57
2022/06/22 04:56:54;;;;;;;;;2.33;2.00;;;;;21.94;47.19;98222.59;4968513;28;102257;-57
2022/06/22 04:59:21;;;;;;;;;2.00;2.00;;;;;21.93;47.38;98226.47;4942754;28;104092;-57
2022/06/22 05:01:54;;;;;;;;;3.00;2.00;;;;;21.93;47.08;98238.28;4927447;28;102260;-57
2022/06/22 05:04:42;;;;;;;;;1.67;1.67;;;;;21.93;47.30;98232.78;4973680;28;102250;-57
2022/06/22 05:07:28;;;;;;;;;2.00;2.00;;;;;21.93;47.62;98243.78;4942787;28;102141;-57
2022/06/22 05:10:03;;;;;;;;;2.33;2.00;;;;;21.93;47.45;98243.78;4937748;28;108981;-57
2022/06/22 05:12:34;;;;;;;;;1.67;1.67;;;;;21.94;46.97;98244.63;4970998;28;102260;-57
2022/06/22 05:15:01;;;;;;;;;2.33;1.67;;;;;21.93;47.09;98249.28;4954660;28;102388;-57
2022/06/22 05:17:31;;;;;;;;;3.00;2.33;;;;;21.95;47.42;98249.84;4948436;28;102263;-57
2022/06/22 05:20:18;;;;;;;;;2.33;2.33;;;;;21.96;47.21;98258.94;4938430;28;103641;-58
2022/06/22 05:22:45;;;;;;;;;1.00;1.00;;;;;21.96;47.09;98253.44;4953252;28;102414;-57
2022/06/22 05:25:12;;;;;;;;;2.33;2.33;;;;;21.97;46.88;98258.66;4921854;28;102197;-57
2022/06/22 05:27:43;;;;;;;;;3.00;2.33;;;;;21.97;46.88;98258.66;4948519;28;102279;-57
2022/06/22 05:30:10;;;;;;;;;1.00;1.00;;;;;21.99;47.01;98259.19;4938318;28;109089;-57
2022/06/22 05:32:48;;;;;;;;;3.00;2.67;;;;;21.97;47.27;98249.56;4937894;28;102223;-57
2022/06/22 05:35:19;;;;;;;;;2.00;1.00;;;;;21.98;47.54;98260.28;4934880;28;102014;-58
2022/06/22 05:37:50;;;;;;;;;1.67;1.67;;;;;21.97;47.03;98258.66;4934007;28;102585;-57
2022/06/22 05:40:18;;;;;;;;;3.67;3.00;;;;;21.96;47.57;98259.75;4940542;28;108783;-57
2022/06/22 05:42:45;;;;;;;;;2.00;2.00;;;;;21.95;47.20;98263.63;4941062;28;102159;-57
2022/06/22 05:45:24;;;;;;;;;1.67;1.67;;;;;21.95;47.30;98255.34;4938864;28;102173;-59
2022/06/22 05:47:53;;;;;;;;;2.00;2.00;;;;;21.94;47.13;98256.44;4936653;28;102531;-57
2022/06/22 05:50:29;;;;;;;;;2.67;2.00;;;;;21.98;46.79;98257.53;4940316;28;104193;-57
2022/06/22 05:53:00;;;;;;;;;2.00;2.00;;;;;22.00;47.11;98254.50;4934347;28;102121;-57
2022/06/22 05:55:29;;;;;;;;;3.00;3.00;;;;;21.99;47.04;98237.16;4927463;28;102475;-57
2022/06/22 05:58:13;;;;;;;;;1.67;1.33;;;;;22.00;47.33;98238.00;4939335;28;102266;-57
2022/06/22 06:00:47;;;;;;;;;1.00;1.00;;;;;21.99;47.32;98223.41;4918209;28;109111;-57
2022/06/22 06:03:22;;;;;;;;;2.00;2.00;;;;;21.99;47.03;98215.13;4940996;28;102129;-57
2022/06/22 06:05:51;;;;;;;;;3.33;1.67;;;;;21.99;46.96;98230.81;4940351;28;102468;-57
2022/06/22 06:08:24;;;;;;;;;2.00;2.00;;;;;22.00;47.08;98238.00;4935962;28;102107;-57
2022/06/22 06:10:51;;;;;;;;;2.00;2.00;;;;;21.96;47.20;98232.22;4942646;28;104120;-57
2022/06/22 06:13:37;;;;;;;;;2.00;2.00;;;;;21.96;47.33;98232.22;4963853;28;103103;-57
2022/06/22 06:16:26;;;;;;;;;2.00;1.67;;;;;21.97;47.38;98244.91;4940806;28;102140;-58
2022/06/22 06:19:02;;;;;;;;;2.67;2.67;;;;;21.99;47.18;98250.09;4950658;28;102309;-57
2022/06/22 06:21:32;;;;;;;;;2.67;2.67;;;;;21.96;47.70;98248.75;4937674;28;103985;-57
2022/06/22 06:24:15;;;;;;;;;2.00;2.00;;;;;21.98;47.41;98249.28;4956915;28;102255;-57
2022/06/22 06:30:00;;;;;;;;;2.67;2.00;;;;;21.99;47.37;98247.34;4957785;28;102720;-57
2022/06/22 06:33:09;;;;;;;;;2.00;2.00;;;;;21.97;47.40;98263.34;4974734;28;104091;-57
2022/06/22 06:35:58;;;;;;;;;3.00;3.00;;;;;21.98;47.67;98257.53;4927719;28;102210;-57
2022/06/22 06:38:30;;;;;;;;;2.00;2.00;;;;;21.97;47.64;98250.41;4974226;28;102518;-57
2022/06/22 06:41:28;;;;;;;;;3.00;2.00;;;;;21.98;47.33;98252.03;4947257;28;102547;-57
2022/06/22 06:44:00;;;;;;;;;2.00;2.00;;;;;21.99;47.89;98258.34;4938098;28;109074;-57
2022/06/22 06:46:29;;;;;;;;;2.00;1.33;;;;;21.99;47.56;98258.34;4927549;28;102217;-57
2022/06/22 06:49:30;;;;;;;;;2.00;2.00;;;;;21.98;47.25;98252.03;4962736;28;102669;-57
2022/06/22 06:52:29;;;;;;;;;3.00;3.00;;;;;22.00;47.39;98258.09;4910349;28;102495;-57
2022/06/22 06:55:13;;;;;;;;;4.00;3.00;;;;;21.99;47.43;98248.16;4921550;28;108789;-57
2022/06/22 06:58:08;;;;;;;;;2.00;2.00;;;;;21.99;47.42;98248.16;4932519;28;102125;-57
2022/06/22 07:00:35;;;;;;;;;2.33;2.33;;;;;22.01;47.60;98250.66;4945916;28;102110;-57
2022/06/22 07:03:02;;;;;;;;;2.00;2.00;;;;;22.00;47.30;98247.06;4972603;28;102075;-57
2022/06/22 07:05:29;;;;;;;;;1.67;1.67;;;;;22.00;47.28;98241.56;4961142;28;104042;-57
2022/06/22 07:08:21;;;;;;;;;2.00;2.00;;;;;22.01;47.30;98232.22;4935836;28;102218;-57
2022/06/22 07:11:31;;;;;;;;;2.33;2.33;;;;;22.00;47.66;98238.81;4916026;28;102571;-58
2022/06/22 07:14:24;;;;;;;;;2.00;2.00;;;;;22.01;47.70;98231.38;4968923;28;102252;-57
2022/06/22 07:16:54;;;;;;;;;2.33;2.00;;;;;22.01;47.83;98232.22;4939876;28;109819;-57
2022/06/22 07:19:26;;;;;;;;;2.00;2.00;;;;;22.00;47.42;98233.31;4919915;28;102640;-57
2022/06/22 07:22:01;;;;;;;;;1.67;1.67;;;;;22.01;47.41;98240.47;4955457;28;102237;-57
2022/06/22 07:24:34;;;;;;;;;2.67;2.67;;;;;22.01;47.50;98232.22;4936993;28;102258;-57
2022/06/22 07:27:05;;;;;;;;;1.33;1.33;;;;;22.02;47.21;98231.06;4939068;28;106028;-57
2022/06/22 07:29:46;;;;;;;;;2.00;2.00;;;;;22.02;47.46;98231.06;4933443;28;102195;-57
2022/06/22 07:32:35;;;;;;;;;3.00;2.00;;;;;22.03;47.55;98221.72;4939464;28;102455;-57
2022/06/22 07:35:17;;;;;;;;;4.00;3.00;;;;;22.04;47.36;98228.06;4954290;28;102470;-57
2022/06/22 07:37:50;;;;;;;;;1.67;1.67;;;;;22.04;47.55;98222.53;4974924;28;109090;-58
2022/06/22 07:40:21;;;;;;;;;2.00;2.00;;;;;22.04;47.55;98217.88;4949094;28;102494;-57
2022/06/22 07:42:50;;;;;;;;;1.00;1.00;;;;;22.03;47.59;98221.72;4946100;28;102128;-57
2022/06/22 07:45:18;;;;;;;;;1.67;1.00;;;;;22.04;47.67;98223.38;4943401;28;102702;-57
2022/06/22 07:47:59;;;;;;;;;3.00;2.00;;;;;22.05;47.52;98225.03;4944974;28;104060;-57
2022/06/22 07:50:49;;;;;;;;;2.00;2.00;;;;;22.04;47.26;98226.13;4952102;28;102127;-57
2022/06/22 07:53:25;;;;;;;;;2.00;2.00;;;;;22.05;47.60;98218.69;4975707;28;102906;-57
2022/06/22 07:56:05;;;;;;;;;3.33;1.67;;;;;22.05;47.51;98230.53;4943902;28;102528;-57
2022/06/22 07:58:38;;;;;;;;;3.00;2.00;;;;;22.06;47.52;98232.19;4970763;28;104247;-57
2022/06/22 08:01:09;;;;;;;;;3.00;3.00;;;;;22.07;47.31;98230.22;4938846;28;102427;-57
2022/06/22 08:03:44;;;;;;;;;2.00;2.00;;;;;22.07;47.50;98222.78;4964203;28;102620;-57
2022/06/22 08:06:26;;;;;;;;;1.33;1.33;;;;;22.09;47.23;98231.59;4925791;28;102118;-57
2022/06/22 08:08:59;;;;;;;;;2.67;1.67;;;;;22.09;47.37;98248.13;4959146;28;108893;-57
2022/06/22 08:11:35;;;;;;;;;2.00;2.00;;;;;22.09;47.38;98236.28;4950624;28;102593;-57
2022/06/22 08:14:14;;;;;;;;;0.67;0.67;;;;;22.08;47.64;98232.69;4963887;28;102577;-57
2022/06/22 08:16:44;;;;;;;;;2.00;2.00;;;;;22.09;47.59;98226.09;4979013;28;102136;-57
2022/06/22 08:19:11;;;;;;;;;1.00;1.00;;;;;22.10;47.38;98226.91;4926615;28;109015;-57
2022/06/22 08:21:44;;;;;;;;;2.00;1.00;;;;;22.10;47.91;98236.00;4944834;28;102504;-57
2022/06/22 08:24:12;;;;;;;;;2.00;2.00;;;;;22.10;47.55;98225.00;4958805;28;102587;-57
2022/06/22 08:26:39;;;;;;;;;2.00;2.00;;;;;22.10;47.36;98225.00;4979666;28;102176;-57
2022/06/22 08:29:06;;;;;;;;;2.00;2.00;;;;;22.11;47.29;98226.63;4979907;28;104143;-57
2022/06/22 08:31:56;;;;;;;;;1.00;1.00;;;;;22.12;47.61;98216.44;4941893;28;102103;-57
2022/06/22 08:34:48;;;;;;;;;1.00;1.00;;;;;22.12;47.29;98209.00;4945164;28;102567;-57
2022/06/22 08:37:24;;;;;;;;;1.00;1.00;;;;;22.12;47.54;98214.50;4940894;28;102499;-58
2022/06/22 08:40:07;;;;;;;;;2.00;2.00;;;;;22.14;47.19;98217.81;4950154;28;104106;-57
2022/06/22 08:42:44;;;;;;;;;0.67;0.67;;;;;22.15;47.15;98219.44;4940699;28;102142;-57
2022/06/22 08:45:48;;;;;;;;;1.00;1.00;;;;;22.16;47.57;98223.00;4978424;28;102217;-57
2022/06/22 08:48:37;;;;;;;;;1.67;1.67;;;;;22.15;47.19;98219.44;4932833;28;102318;-59
2022/06/22 08:51:16;;;;;;;;;1.00;1.00;;;;;22.16;47.32;98212.81;4932524;28;104263;-57
2022/06/22 08:53:52;;;;;;;;;1.33;1.33;;;;;22.17;47.25;98217.22;4936918;28;102437;-57
2022/06/22 08:56:41;;;;;;;;;2.00;2.00;;;;;22.17;47.54;98217.22;4935899;28;101991;-57
2022/06/22 08:59:13;;;;;;;;;2.00;2.00;;;;;22.18;47.26;98224.38;4969507;28;102518;-57
2022/06/22 09:02:10;;;;;;;;;1.00;1.00;;;;;22.17;47.24;98222.72;4934932;28;109784;-57
2022/06/22 09:04:37;;;;;;;;;1.00;1.00;;;;;22.19;47.25;98225.22;4932179;28;102457;-57
2022/06/22 09:07:29;;;;;;;;;1.00;1.00;;;;;22.19;47.24;98220.53;4939452;28;102382;-57
2022/06/22 09:10:21;;;;;;;;;2.00;2.00;;;;;22.19;47.30;98220.53;4941058;28;103129;-57
2022/06/22 09:13:19;;;;;;;;;2.00;2.00;;;;;22.20;47.34;98216.66;4941496;28;109017;-57
2022/06/22 09:16:05;;;;;;;;;1.00;1.00;;;;;22.22;47.41;98217.19;4925981;28;104473;-58
2022/06/22 09:18:52;;;;;;;;;2.00;2.00;;;;;22.22;47.14;98214.44;4938663;28;102516;-57
2022/06/22 09:21:40;;;;;;;;;1.33;1.33;;;;;22.23;47.46;98221.59;4940491;28;102325;-58
2022/06/22 09:24:20;;;;;;;;;0.67;0.67;;;;;22.23;47.36;98216.09;4965600;28;104024;-57
2022/06/22 09:27:13;;;;;;;;;1.33;1.33;;;;;22.24;47.48;98222.44;4921373;28;103430;-58
2022/06/22 09:29:58;;;;;;;;;1.00;1.00;;;;;22.23;47.45;98216.09;4931597;28;101997;-58
2022/06/22 09:33:00;;;;;;;;;1.67;1.00;;;;;22.25;47.56;98222.13;4923903;28;103064;-57
2022/06/22 09:35:46;;;;;;;;;0.67;0.67;;;;;22.25;47.43;98233.16;4942842;28;108638;-57
2022/06/22 09:38:39;;;;;;;;;1.67;1.00;;;;;22.25;47.37;98216.63;4934348;28;102319;-57
2022/06/22 09:41:24;;;;;;;;;1.67;0.67;;;;;22.27;47.49;98216.34;4939630;28;102400;-57
2022/06/22 09:44:12;;;;;;;;;1.00;1.00;;;;;22.27;47.46;98216.34;4945470;28;102435;-57
2022/06/22 09:47:05;;;;;;;;;2.00;2.00;;;;;22.28;47.14;98208.91;4941388;28;104043;-57
2022/06/22 09:50:11;;;;;;;;;1.00;1.00;;;;;22.30;47.27;98212.19;4917546;28;102032;-57
2022/06/22 09:53:14;;;;;;;;;1.00;1.00;;;;;22.28;47.18;98195.97;4934896;28;102375;-57
2022/06/22 09:56:24;;;;;;;;;1.00;1.00;;;;;22.31;47.45;98206.41;4926487;28;102250;-57
2022/06/22 09:59:23;;;;;;;;;0.67;0.67;;;;;22.32;47.23;98204.47;4968785;28;108872;-57
2022/06/22 10:02:11;;;;;;;;;1.00;1.00;;;;;22.32;47.34;98196.19;4941335;28;102145;-57
2022/06/22 10:04:47;;;;;;;;;2.00;1.00;;;;;22.33;47.16;98203.38;4937363;28;102164;-57
2022/06/22 10:07:41;;;;;;;;;2.00;2.00;;;;;22.33;47.37;98195.91;4948165;28;102260;-57
2022/06/22 10:10:15;;;;;;;;;1.67;1.67;;;;;22.34;47.44;98193.97;4935682;28;108833;-57
2022/06/22 10:12:48;;;;;;;;;1.00;1.00;;;;;22.33;47.41;98197.84;4974900;28;102137;-57
2022/06/22 10:15:36;;;;;;;;;1.00;1.00;;;;;22.35;47.29;98187.34;4940394;28;102567;-57
2022/06/22 10:18:21;;;;;;;;;1.67;0.67;;;;;22.35;47.48;98188.19;4934999;28;102365;-57
2022/06/22 10:21:16;;;;;;;;;1.00;1.00;;;;;22.36;47.40;98189.00;4914490;28;110015;-57
2022/06/22 10:24:11;;;;;;;;;1.00;1.00;;;;;22.38;47.24;98187.59;4970418;28;102304;-57
2022/06/22 10:27:20;;;;;;;;;2.00;2.00;;;;;22.40;47.16;98190.06;4936971;28;102199;-57
2022/06/22 10:29:53;;;;;;;;;1.00;1.00;;;;;22.39;47.44;98188.41;4936110;28;102615;-58
2022/06/22 10:32:38;;;;;;;;;1.67;1.67;;;;;22.40;47.39;98190.06;4938127;28;108926;-58
2022/06/22 10:35:14;;;;;;;;;0.67;0.67;;;;;22.40;47.15;98203.84;4934996;28;102007;-57
2022/06/22 10:38:12;;;;;;;;;1.00;1.00;;;;;22.40;47.23;98199.16;4935736;28;103078;-57
2022/06/22 10:46:58;;;;;;;;;1.00;1.00;;;;;22.41;47.38;98195.31;4935770;28;102416;-57
2022/06/22 10:49:38;;;;;;;;;1.00;1.00;;;;;22.41;47.24;98195.31;4952021;28;102194;-58
2022/06/22 10:52:05;;;;;;;;;0.67;0.67;;;;;22.41;47.14;98191.72;4966513;28;102580;-58
2022/06/22 10:54:44;;;;;;;;;1.00;1.00;;;;;22.43;47.28;98187.56;4928699;28;104361;-57
2022/06/22 10:57:17;;;;;;;;;2.00;2.00;;;;;22.43;47.23;98187.56;4934091;28;102403;-57
2022/06/22 11:00:03;;;;;;;;;2.00;2.00;;;;;22.45;47.28;98190.03;4940352;28;102529;-57
2022/06/22 11:02:58;;;;;;;;;2.00;1.00;;;;;22.46;47.31;98183.41;4935306;28;102519;-58
2022/06/22 11:06:05;;;;;;;;;1.33;1.00;;;;;22.46;47.03;98187.00;4937922;28;108339;-57
2022/06/22 11:09:02;;;;;;;;;1.00;1.00;;;;;22.48;47.39;98197.72;4924934;28;102445;-57
2022/06/22 11:11:32;;;;;;;;;1.00;1.00;;;;;22.47;47.05;98182.31;4936189;28;103444;-57
2022/06/22 11:14:28;;;;;;;;;2.00;1.67;;;;;22.48;47.33;98173.75;4965028;28;102745;-57
2022/06/22 11:17:25;;;;;;;;;2.00;2.00;;;;;22.48;47.18;98181.19;4940688;28;109134;-58
2022/06/22 11:19:55;;;;;;;;;0.67;0.67;;;;;22.50;47.19;98190.00;4934972;28;102220;-57
2022/06/22 11:22:55;;;;;;;;;1.00;1.00;;;;;22.50;47.07;98179.81;4937725;28;102095;-58
2022/06/22 11:31:21;;;;;;;;;1.00;1.00;;;;;22.52;47.29;98185.00;4946121;28;102932;-58
2022/06/22 11:33:54;;;;;;;;;1.00;1.00;;;;;22.51;47.26;98178.69;4973364;28;102145;-58
2022/06/22 11:36:30;;;;;;;;;1.33;1.00;;;;;22.51;47.25;98184.22;4942897;28;102544;-58
2022/06/22 11:39:38;;;;;;;;;1.00;1.00;;;;;22.50;47.19;98177.03;4944671;28;109996;-58
2022/06/22 11:42:32;;;;;;;;;0.00;0.00;;;;;22.52;47.08;98185.00;4940037;28;102235;-58
2022/06/22 11:48:30;;;;;;;;;0.67;0.67;;;;;22.54;47.09;98185.56;4927220;28;102588;-58
2022/06/22 11:51:26;;;;;;;;;0.67;0.67;;;;;22.54;47.07;98186.38;4973909;28;108826;-58
2022/06/22 11:54:10;;;;;;;;;1.00;1.00;;;;;22.54;47.23;98188.31;4960227;28;102406;-57
2022/06/22 11:56:46;;;;;;;;;1.00;1.00;;;;;22.56;47.28;98197.13;4927950;28;102241;-58
2022/06/22 11:59:20;;;;;;;;;1.67;1.00;;;;;22.55;47.07;98196.28;4936831;28;102222;-57
2022/06/22 12:01:52;;;;;;;;;2.00;1.00;;;;;22.55;47.14;98198.22;4932688;28;108996;-58
2022/06/22 12:04:47;;;;;;;;;1.67;1.67;;;;;22.57;47.05;98193.22;4971044;28;102456;-60
2022/06/22 12:07:43;;;;;;;;;1.00;1.00;;;;;22.58;47.10;98197.63;4936211;28;102639;-58
2022/06/22 12:10:32;;;;;;;;;2.00;1.33;;;;;22.58;47.10;98195.72;4966966;28;102224;-58
2022/06/22 12:13:31;;;;;;;;;0.00;0.00;;;;;22.58;47.08;98189.38;4935083;28;109064;-57
2022/06/22 12:16:16;;;;;;;;;0.33;0.33;;;;;22.57;47.14;98193.22;4971436;28;102063;-58
2022/06/22 12:18:46;;;;;;;;;1.00;1.00;;;;;22.58;47.11;98184.69;4937665;28;102139;-58
2022/06/22 12:21:41;;;;;;;;;0.00;0.00;;;;;22.59;47.19;98186.34;4939333;28;102279;-57
2022/06/22 12:24:24;;;;;;;;;1.67;1.67;;;;;22.59;47.15;98180.81;4921246;28;108775;-58
2022/06/22 12:27:12;;;;;;;;;1.67;1.67;;;;;22.60;47.08;98171.41;4943253;28;102403;-58
2022/06/22 12:29:54;;;;;;;;;1.33;1.33;;;;;22.61;47.30;98173.06;4938963;28;103074;-58
2022/06/22 12:32:31;;;;;;;;;0.67;0.67;;;;;22.61;47.22;98162.06;4933660;28;102806;-57
2022/06/22 12:35:16;;;;;;;;;1.00;1.00;;;;;22.62;47.18;98157.38;4925819;28;103947;-58
2022/06/22 12:38:08;;;;;;;;;1.00;1.00;;;;;22.64;47.18;98157.91;4942030;28;102288;-58
2022/06/22 12:40:57;;;;;;;;;1.00;1.00;;;;;22.65;47.03;98159.53;4973271;28;102509;-58
2022/06/22 12:43:25;;;;;;;;;0.67;0.67;;;;;22.66;46.95;98148.22;4959947;28;102309;-58
2022/06/22 12:45:53;;;;;;;;;1.00;1.00;;;;;22.68;47.45;98150.69;4946656;28;104264;-58
2022/06/22 12:48:45;;;;;;;;;1.00;1.00;;;;;22.68;47.21;98143.25;4937161;28;103764;-58